createdAt,value
2022-11-24T00:04:49.171Z,100313.34
2022-11-24T00:11:50.926Z,100328.59
2022-11-24T00:18:53.833Z,100321.69
2022-11-24T00:25:55.512Z,100327.59
2022-11-24T00:32:57.184Z,100328.91
2022-11-24T00:39:58.819Z,100324.56
2022-11-24T00:47:00.826Z,100329.44
2022-11-24T00:54:02.883Z,100325.78
2022-11-24T01:01:08.310Z,100326.66
2022-11-24T01:08:10.020Z,100319.38
2022-11-24T01:15:11.718Z,100320.69
2022-11-24T01:22:13.604Z,100333.81
2022-11-24T01:29:15.307Z,100345.81
2022-11-24T01:36:16.947Z,100342.50
2022-11-24T01:43:20.113Z,100331.34
2022-11-24T01:50:21.726Z,100329.06
2022-11-24T01:57:31.373Z,100328.88
2022-11-24T02:04:33.715Z,100348.53
2022-11-24T02:11:37.365Z,100366.78
2022-11-24T02:18:39.043Z,100370.22
2022-11-24T02:25:52.183Z,100377.16
2022-11-24T02:32:53.928Z,100374.84
2022-11-24T02:39:55.595Z,100370.00
2022-11-24T02:47:23.695Z,100382.44
2022-11-24T02:54:25.409Z,100381.25
2022-11-24T03:01:27.156Z,100378.56
2022-11-24T03:08:28.871Z,100379.41
2022-11-24T03:15:30.658Z,100365.22
2022-11-24T03:22:32.469Z,100363.66
2022-11-24T03:29:34.104Z,100388.19
2022-11-24T03:36:35.739Z,100387.47
2022-11-24T03:43:43.219Z,100394.88
2022-11-24T03:50:52.935Z,100406.88
2022-11-24T03:57:54.574Z,100411.22
2022-11-24T04:04:56.243Z,100411.66
2022-11-24T04:12:16.640Z,100411.78
2022-11-24T04:19:18.287Z,100425.13
2022-11-24T04:26:19.950Z,100422.53
2022-11-24T04:33:21.584Z,100417.38
2022-11-24T04:40:23.244Z,100419.16
2022-11-24T04:47:25.524Z,100420.53
2022-11-24T04:54:27.179Z,100439.25
2022-11-24T05:01:28.912Z,100455.16
2022-11-24T05:08:30.587Z,100464.38
2022-11-24T05:15:32.353Z,100478.94
2022-11-24T05:22:33.929Z,100477.78
2022-11-24T05:29:35.473Z,100484.72
2022-11-24T05:36:56.205Z,100491.69
2022-11-24T05:43:57.755Z,100496.13
2022-11-24T05:50:59.393Z,100495.66
2022-11-24T05:58:01.550Z,100506.31
2022-11-24T06:05:03.223Z,100507.97
2022-11-24T06:12:07.890Z,100512.56
2022-11-24T06:19:10.454Z,100523.72
2022-11-24T06:26:12.032Z,100544.88
2022-11-24T06:33:13.618Z,100546.56
2022-11-24T06:40:15.190Z,100563.25
2022-11-24T06:47:16.968Z,100563.97
2022-11-24T06:54:20.995Z,100573.09
2022-11-24T07:01:27.170Z,100568.50
2022-11-24T07:08:28.804Z,100571.22
2022-11-24T07:15:30.514Z,100586.66
2022-11-24T07:22:32.105Z,100588.56
2022-11-24T07:29:33.686Z,100585.63
2022-11-24T07:36:35.241Z,100603.16
2022-11-24T07:43:37.332Z,100601.88
2022-11-24T07:50:39.407Z,100607.78
2022-11-24T07:57:41.114Z,100615.75
2022-11-24T08:04:42.919Z,100615.75
2022-11-24T08:11:44.476Z,100603.00
2022-11-24T08:18:50.653Z,100607.50
2022-11-24T08:25:56.733Z,100625.22
2022-11-24T08:33:00.255Z,100628.56
2022-11-24T08:40:01.855Z,100631.22
2022-11-24T08:47:03.543Z,100629.03
2022-11-24T08:54:05.175Z,100634.94
2022-11-24T09:01:16.567Z,100631.38
2022-11-24T09:08:18.199Z,100630.41
2022-11-24T09:15:20.310Z,100635.06
2022-11-24T09:22:21.943Z,100653.41
2022-11-24T09:29:23.567Z,100664.53
2022-11-24T09:36:25.173Z,100662.59
2022-11-24T09:43:35.358Z,100661.16
2022-11-24T09:50:37.389Z,100669.88
2022-11-24T09:57:38.962Z,100680.63
2022-11-24T10:04:43.213Z,100694.63
2022-11-24T10:12:04.695Z,100691.53
2022-11-24T10:19:34.448Z,100689.88
2022-11-24T10:26:39.644Z,100680.69
2022-11-24T10:33:41.256Z,100690.63
2022-11-24T10:41:00.468Z,100692.72
2022-11-24T10:48:02.055Z,100684.59
2022-11-24T10:55:04.749Z,100681.47
2022-11-24T11:02:35.773Z,100677.09
2022-11-24T11:09:37.555Z,100688.88
2022-11-24T11:16:43.780Z,100696.84
2022-11-24T11:23:45.338Z,100694.72
2022-11-24T11:31:17.888Z,100692.28
2022-11-24T11:38:20.565Z,100681.63
2022-11-24T11:45:26.610Z,100679.34
2022-11-24T11:52:48.079Z,100688.75
2022-11-24T12:00:05.178Z,100679.94
2022-11-24T12:07:31.938Z,100692.03
2022-11-24T12:15:21.286Z,100684.06
2022-11-24T12:22:42.902Z,100672.38
2022-11-24T12:30:09.554Z,100682.50
2022-11-24T12:37:33.257Z,100680.94
2022-11-24T12:44:50.873Z,100692.75
2022-11-24T12:51:58.213Z,100700.50
2022-11-24T12:59:18.069Z,100710.09
2022-11-24T13:06:32.670Z,100718.44
2022-11-24T13:13:57.653Z,100714.44
2022-11-24T13:20:59.234Z,100717.63
2022-11-24T13:28:06.450Z,100714.84
2022-11-24T13:35:17.181Z,100729.44
2022-11-24T13:42:41.835Z,100743.16
2022-11-24T13:49:41.411Z,100740.88
2022-11-24T13:56:42.988Z,100746.28
2022-11-24T14:11:14.423Z,100760.66
2022-11-24T14:18:18.342Z,100787.16
2022-11-24T14:25:31.076Z,100796.34
2022-11-24T14:32:32.658Z,100804.25
2022-11-24T14:39:41.877Z,100819.94
2022-11-24T14:46:43.774Z,100810.56
2022-11-24T14:53:45.672Z,100819.44
2022-11-24T15:01:07.846Z,100839.88
2022-11-24T15:08:10.851Z,100822.06
2022-11-24T15:15:15.472Z,100830.63
2022-11-24T15:22:38.782Z,100848.13
2022-11-24T15:29:40.352Z,100856.53
2022-11-24T15:36:43.031Z,100862.41
2022-11-24T15:43:44.648Z,100870.56
2022-11-24T15:50:46.940Z,100874.34
2022-11-24T15:57:48.775Z,100883.16
2022-11-24T16:04:51.206Z,100892.03
2022-11-24T16:11:52.871Z,100886.66
2022-11-24T16:18:54.526Z,100890.53
2022-11-24T16:25:56.122Z,100899.03
2022-11-24T16:32:57.723Z,100901.56
2022-11-24T16:40:01.435Z,100898.06
2022-11-24T16:47:03.059Z,100915.78
2022-11-24T16:54:04.728Z,100894.16
2022-11-24T17:01:07.435Z,100908.94
2022-11-24T17:08:09.117Z,100914.25
2022-11-24T17:15:31.830Z,100915.34
2022-11-24T17:22:32.393Z,100919.22
2022-11-24T17:29:33.946Z,100923.38
2022-11-24T17:36:35.701Z,100938.34
2022-11-24T17:43:37.288Z,100942.34
2022-11-24T17:50:38.878Z,100929.31
2022-11-24T17:57:40.459Z,100932.25
2022-11-24T18:04:42.025Z,100936.03
2022-11-24T18:11:43.665Z,100939.50
2022-11-24T18:18:50.081Z,100939.88
2022-11-24T18:25:53.959Z,100946.53
2022-11-24T18:32:55.550Z,100958.88
2022-11-24T18:39:57.223Z,100958.75
2022-11-24T18:46:58.780Z,100960.50
2022-11-24T18:54:02.084Z,100965.84
2022-11-24T19:01:16.895Z,100972.38
2022-11-24T19:08:18.859Z,100968.19
2022-11-24T19:15:20.447Z,100969.19
2022-11-24T19:22:22.059Z,100969.09
2022-11-24T19:29:23.804Z,100971.34
2022-11-24T19:36:26.195Z,100973.00
2022-11-24T19:43:27.983Z,100973.56
2022-11-24T19:50:29.584Z,100985.72
2022-11-24T19:57:31.139Z,101001.88
2022-11-24T20:04:33.595Z,101000.63
2022-11-24T20:11:35.582Z,101006.78
2022-11-24T20:18:41.926Z,101021.16
2022-11-24T20:25:44.160Z,101028.47
2022-11-24T20:32:45.772Z,101038.09
2022-11-24T20:39:47.919Z,101037.38
2022-11-24T20:46:49.618Z,101041.28
2022-11-24T20:53:52.527Z,101051.00
2022-11-24T21:00:54.167Z,101046.41
2022-11-24T21:07:55.789Z,101041.16
2022-11-24T21:14:57.395Z,101043.13
2022-11-24T21:21:58.982Z,101044.03
2022-11-24T21:29:00.616Z,101054.94
2022-11-24T21:36:03.106Z,101056.13
2022-11-24T21:43:04.725Z,101064.00
2022-11-24T21:50:07.272Z,101065.91
2022-11-24T21:57:08.870Z,101075.91
2022-11-24T22:04:10.488Z,101077.75
2022-11-24T22:11:19.964Z,101083.84
2022-11-24T22:18:21.567Z,101077.75
2022-11-24T22:25:23.126Z,101084.09
2022-11-24T22:32:24.682Z,101083.88
2022-11-24T22:39:26.268Z,101083.88
2022-11-24T22:46:28.510Z,101098.69
2022-11-24T22:53:30.182Z,101096.03
2022-11-24T23:00:31.819Z,101104.84
2022-11-24T23:07:33.486Z,101104.38
2022-11-24T23:14:35.292Z,101099.75
2022-11-24T23:21:40.640Z,101100.47
2022-11-24T23:28:43.141Z,101105.72
2022-11-24T23:35:44.690Z,101097.75
2022-11-24T23:42:49.386Z,101113.28
2022-11-24T23:49:50.938Z,101108.13
2022-11-24T23:56:52.518Z,101116.91
